createdAt,value
2018-01-28T00:00:22.947Z,8.40
2018-01-28T00:02:50.503Z,9.30
2018-01-28T00:05:18.835Z,11.07
2018-01-28T00:07:47.374Z,8.97
2018-01-28T00:10:14.883Z,9.50
2018-01-28T00:12:42.430Z,10.77
2018-01-28T00:15:10.696Z,8.10
2018-01-28T00:17:38.210Z,10.30
2018-01-28T00:20:05.711Z,9.27
2018-01-28T00:22:33.363Z,6.00
2018-01-28T00:25:00.861Z,7.80
2018-01-28T00:27:28.378Z,8.60
2018-01-28T00:29:56.635Z,7.03
2018-01-28T00:32:24.133Z,6.90
2018-01-28T00:34:52.438Z,8.57
2018-01-28T00:37:20.068Z,7.80
2018-01-28T00:39:48.479Z,7.57
2018-01-28T00:42:16.147Z,7.87
2018-01-28T00:44:43.840Z,7.50
2018-01-28T00:47:11.582Z,8.03
2018-01-28T00:49:39.086Z,7.67
2018-01-28T00:52:06.591Z,7.20
2018-01-28T00:54:34.235Z,8.17
2018-01-28T00:57:01.734Z,7.70
2018-01-28T00:59:29.236Z,7.80
2018-01-28T01:01:56.731Z,6.97
2018-01-28T01:04:24.403Z,5.90
2018-01-28T01:06:52.034Z,7.37
2018-01-28T01:09:19.610Z,6.73
2018-01-28T01:11:47.102Z,7.50
2018-01-28T01:14:14.603Z,4.67
2018-01-28T01:16:42.107Z,6.83
2018-01-28T01:19:09.742Z,6.30
2018-01-28T01:21:37.519Z,4.37
2018-01-28T01:24:05.050Z,8.07
2018-01-28T01:26:32.539Z,5.13
2018-01-28T01:29:00.287Z,7.60
2018-01-28T01:31:27.758Z,6.73
2018-01-28T01:33:55.256Z,5.37
2018-01-28T01:36:23.787Z,5.17
2018-01-28T01:38:51.291Z,7.03
2018-01-28T01:41:18.790Z,6.90
2018-01-28T01:43:46.286Z,5.93
2018-01-28T01:46:13.795Z,7.60
2018-01-28T01:48:41.379Z,4.50
2018-01-28T01:51:09.141Z,5.93
2018-01-28T01:53:36.907Z,6.47
2018-01-28T01:56:04.663Z,6.23
2018-01-28T01:58:32.450Z,6.30
2018-01-28T02:00:59.934Z,5.03
2018-01-28T02:03:27.434Z,6.60
2018-01-28T02:05:54.938Z,6.90
2018-01-28T02:08:22.564Z,7.17
2018-01-28T02:10:50.062Z,8.53
2018-01-28T02:13:17.577Z,7.83
2018-01-28T02:15:45.082Z,7.33
2018-01-28T02:18:13.349Z,8.13
2018-01-28T02:20:40.859Z,8.27
2018-01-28T02:23:08.360Z,9.57
2018-01-28T02:25:35.990Z,10.30
2018-01-28T02:28:03.500Z,6.40
2018-01-28T02:30:31.059Z,6.90
2018-01-28T02:33:00.076Z,9.33
2018-01-28T02:35:27.569Z,6.20
2018-01-28T02:37:55.115Z,9.70
2018-01-28T02:40:22.622Z,10.10
2018-01-28T02:42:50.126Z,8.97
2018-01-28T02:45:18.034Z,10.23
2018-01-28T02:47:45.813Z,9.63
2018-01-28T02:50:13.623Z,9.77
2018-01-28T02:52:41.137Z,11.30
2018-01-28T02:55:08.856Z,9.13
2018-01-28T02:57:36.615Z,9.77
2018-01-28T03:00:04.171Z,9.13
2018-01-28T03:02:32.577Z,11.17
2018-01-28T03:05:00.208Z,13.17
2018-01-28T03:07:27.967Z,11.23
2018-01-28T03:09:55.479Z,11.87
2018-01-28T03:12:23.793Z,13.10
2018-01-28T03:14:51.567Z,13.27
2018-01-28T03:17:19.082Z,10.80
2018-01-28T03:19:46.791Z,13.77
2018-01-28T03:22:14.563Z,10.03
2018-01-28T03:24:42.074Z,11.07
2018-01-28T03:27:09.774Z,12.07
2018-01-28T03:29:37.266Z,9.43
2018-01-28T03:32:04.969Z,11.87
2018-01-28T03:34:32.475Z,11.90
2018-01-28T03:37:00.261Z,13.43
2018-01-28T03:39:27.987Z,10.67
2018-01-28T03:41:55.739Z,10.93
2018-01-28T03:44:23.243Z,10.27
2018-01-28T03:46:50.979Z,10.93
2018-01-28T03:49:18.494Z,11.80
2018-01-28T03:51:46.002Z,9.33
2018-01-28T03:54:13.636Z,10.60
2018-01-28T03:56:41.154Z,10.47
2018-01-28T03:59:08.701Z,11.07
2018-01-28T04:01:36.979Z,9.47
2018-01-28T04:04:04.691Z,9.83
2018-01-28T04:06:32.203Z,10.23
2018-01-28T04:08:59.918Z,9.63
2018-01-28T04:11:27.425Z,9.20
2018-01-28T04:13:55.286Z,9.90
2018-01-28T04:16:22.906Z,10.50
2018-01-28T04:18:50.660Z,10.07
2018-01-28T04:21:18.435Z,10.70
2018-01-28T04:23:46.186Z,11.97
2018-01-28T04:26:13.691Z,12.30
2018-01-28T04:28:41.378Z,12.13
2018-01-28T04:31:09.163Z,11.33
2018-01-28T04:33:36.672Z,14.37
2018-01-28T04:36:04.182Z,13.17
2018-01-28T04:38:31.828Z,12.57
2018-01-28T04:40:59.611Z,12.80
2018-01-28T04:43:27.110Z,12.87
2018-01-28T04:45:54.832Z,14.20
2018-01-28T04:48:22.591Z,12.37
2018-01-28T04:50:50.103Z,10.50
2018-01-28T04:53:17.619Z,14.20
2018-01-28T04:55:45.122Z,13.33
2018-01-28T04:58:12.640Z,12.90
2018-01-28T05:00:42.205Z,14.00
2018-01-28T05:03:09.811Z,11.37
2018-01-28T05:05:37.305Z,11.20
2018-01-28T05:08:04.880Z,14.50
2018-01-28T05:10:33.076Z,11.40
2018-01-28T05:13:00.715Z,11.83
2018-01-28T05:15:28.210Z,10.30
2018-01-28T05:17:55.775Z,11.00
2018-01-28T05:20:24.054Z,12.10
2018-01-28T05:22:51.557Z,10.10
2018-01-28T05:25:19.351Z,9.87
2018-01-28T05:27:46.855Z,8.83
2018-01-28T05:30:14.891Z,9.67
2018-01-28T05:32:42.471Z,8.30
2018-01-28T05:35:10.736Z,7.83
2018-01-28T05:37:38.477Z,8.40
2018-01-28T05:40:06.239Z,7.73
2018-01-28T05:42:34.315Z,7.90
2018-01-28T05:45:01.823Z,9.20
2018-01-28T05:47:29.532Z,7.30
2018-01-28T05:49:57.034Z,8.73
2018-01-28T05:52:24.751Z,8.30
2018-01-28T05:54:52.254Z,6.87
2018-01-28T05:57:19.757Z,10.00
2018-01-28T05:59:47.260Z,9.07
2018-01-28T06:02:15.534Z,9.87
2018-01-28T06:04:43.062Z,6.97
2018-01-28T06:07:10.685Z,6.90
2018-01-28T06:09:38.291Z,6.83
2018-01-28T06:12:05.904Z,6.63
2018-01-28T06:14:33.864Z,6.30
2018-01-28T06:17:01.361Z,6.50
2018-01-28T06:19:28.939Z,6.77
2018-01-28T06:21:56.503Z,7.10
2018-01-28T06:24:24.107Z,6.77
2018-01-28T06:26:51.616Z,7.00
2018-01-28T06:29:19.134Z,4.87
2018-01-28T06:31:46.837Z,6.53
2018-01-28T06:34:14.352Z,5.90
2018-01-28T06:36:41.916Z,5.90
2018-01-28T06:39:09.483Z,6.60
2018-01-28T06:41:36.991Z,5.00
2018-01-28T06:44:04.907Z,5.87
2018-01-28T06:46:32.401Z,5.80
2018-01-28T06:49:00.116Z,4.73
2018-01-28T06:51:27.674Z,4.63
2018-01-28T06:53:55.949Z,5.10
2018-01-28T06:56:23.538Z,5.03
2018-01-28T06:58:51.022Z,3.93
2018-01-28T07:01:18.566Z,5.30
2018-01-28T07:03:46.128Z,5.47
2018-01-28T07:06:13.663Z,4.37
2018-01-28T07:08:41.437Z,4.87
2018-01-28T07:11:09.169Z,4.50
2018-01-28T07:13:36.662Z,6.40
2018-01-28T07:16:04.155Z,5.10
2018-01-28T07:18:32.615Z,4.90
2018-01-28T07:21:00.107Z,4.90
2018-01-28T07:23:27.985Z,5.17
2018-01-28T07:25:55.487Z,4.83
2018-01-28T07:28:23.467Z,5.13
2018-01-28T07:30:50.970Z,4.90
2018-01-28T07:33:18.488Z,5.07
2018-01-28T07:35:46.179Z,4.70
2018-01-28T07:38:13.735Z,5.20
2018-01-28T07:40:41.231Z,4.90
2018-01-28T07:43:08.922Z,6.30
2018-01-28T07:45:36.351Z,4.60
2018-01-28T07:48:04.075Z,4.87
2018-01-28T07:50:31.784Z,6.27
2018-01-28T07:52:59.295Z,6.33
2018-01-28T07:55:26.804Z,5.40
2018-01-28T07:57:54.306Z,3.47
2018-01-28T08:00:21.968Z,5.67
2018-01-28T08:02:49.644Z,3.60
2018-01-28T08:05:17.123Z,4.97
2018-01-28T08:07:44.638Z,4.33
2018-01-28T08:10:14.080Z,6.07
2018-01-28T08:12:43.400Z,5.53
2018-01-28T08:15:11.076Z,5.53
2018-01-28T08:17:38.813Z,5.90
2018-01-28T08:20:06.317Z,5.30
2018-01-28T08:22:34.127Z,6.00
2018-01-28T08:25:01.631Z,4.53
2018-01-28T08:27:30.475Z,5.70
2018-01-28T08:29:58.026Z,5.97
2018-01-28T08:32:25.640Z,4.27
2018-01-28T08:34:53.360Z,5.90
2018-01-28T08:37:20.972Z,4.67
2018-01-28T08:39:48.484Z,4.50
2018-01-28T08:42:15.981Z,5.83
2018-01-28T08:44:44.698Z,5.37
2018-01-28T08:47:12.176Z,5.40
2018-01-28T08:49:40.759Z,5.83
2018-01-28T08:52:09.039Z,5.07
2018-01-28T08:54:36.570Z,4.83
2018-01-28T08:57:04.080Z,6.10
2018-01-28T08:59:31.729Z,5.70
2018-01-28T09:01:59.229Z,5.60
2018-01-28T09:04:26.975Z,5.40
2018-01-28T09:06:54.691Z,5.73
2018-01-28T09:09:22.230Z,4.70
2018-01-28T09:11:50.052Z,5.33
2018-01-28T09:14:17.557Z,6.20
2018-01-28T09:16:45.178Z,6.50
2018-01-28T09:19:12.672Z,4.50
2018-01-28T09:21:40.178Z,3.60
2018-01-28T09:24:07.719Z,5.83
2018-01-28T09:26:35.223Z,5.77
2018-01-28T09:29:02.726Z,6.07
2018-01-28T09:31:30.234Z,4.00
2018-01-28T09:33:57.895Z,6.70
2018-01-28T09:36:25.646Z,7.90
2018-01-28T09:38:53.144Z,5.03
2018-01-28T09:41:20.650Z,5.23
2018-01-28T09:43:48.396Z,6.33
2018-01-28T09:46:15.905Z,6.23
2018-01-28T09:48:43.598Z,5.10
2018-01-28T09:51:11.103Z,4.83
2018-01-28T09:53:38.707Z,5.73
2018-01-28T09:56:06.586Z,5.50
2018-01-28T09:58:34.091Z,6.60
2018-01-28T10:01:01.799Z,3.70
2018-01-28T10:03:29.300Z,4.10
2018-01-28T10:05:56.820Z,5.37
2018-01-28T10:08:24.853Z,6.20
2018-01-28T10:10:52.522Z,5.37
2018-01-28T10:13:20.023Z,6.23
2018-01-28T10:15:47.534Z,5.70
2018-01-28T10:18:15.039Z,5.50
2018-01-28T10:20:42.709Z,5.57
2018-01-28T10:23:10.171Z,5.50
2018-01-28T10:25:37.679Z,6.47
2018-01-28T10:28:05.183Z,6.27
2018-01-28T10:30:32.823Z,4.63
2018-01-28T10:33:00.591Z,4.70
2018-01-28T10:35:28.346Z,6.80
2018-01-28T10:37:56.117Z,6.40
2018-01-28T10:40:23.875Z,4.70
2018-01-28T10:42:51.645Z,5.47
2018-01-28T10:45:19.135Z,5.77
2018-01-28T10:47:46.639Z,5.87
2018-01-28T10:50:14.275Z,4.77
2018-01-28T10:52:42.533Z,6.40
2018-01-28T10:55:10.795Z,6.07
2018-01-28T10:57:38.512Z,6.67
2018-01-28T11:00:06.003Z,4.60
2018-01-28T11:02:33.520Z,6.30
2018-01-28T11:05:01.019Z,6.83
2018-01-28T11:07:28.534Z,7.63
2018-01-28T11:09:56.043Z,5.50
2018-01-28T11:12:23.550Z,6.20
2018-01-28T11:14:51.043Z,5.00
2018-01-28T11:17:18.792Z,6.90
2018-01-28T11:19:46.560Z,4.73
2018-01-28T11:22:14.063Z,6.73
2018-01-28T11:24:41.981Z,5.63
2018-01-28T11:27:10.536Z,5.80
2018-01-28T11:29:38.040Z,5.40
2018-01-28T11:32:05.544Z,4.23
2018-01-28T11:34:33.161Z,5.00
2018-01-28T11:37:00.673Z,5.97
2018-01-28T11:39:29.666Z,8.10
2018-01-28T11:41:57.401Z,8.10
2018-01-28T11:44:24.911Z,5.07
2018-01-28T11:46:52.408Z,4.93
2018-01-28T11:49:20.951Z,6.87
2018-01-28T11:51:48.443Z,6.73
2018-01-28T11:54:16.147Z,5.47
2018-01-28T11:56:44.182Z,4.90
2018-01-28T11:59:11.695Z,5.03
2018-01-28T12:01:39.188Z,4.80
2018-01-28T12:04:06.694Z,4.97
2018-01-28T12:06:34.338Z,6.77
2018-01-28T12:09:01.868Z,6.33
2018-01-28T12:11:29.380Z,6.80
2018-01-28T12:13:56.995Z,5.83
2018-01-28T12:16:24.839Z,5.40
2018-01-28T12:18:52.575Z,6.03
2018-01-28T12:21:20.342Z,7.63
2018-01-28T12:23:47.842Z,5.60
2018-01-28T12:26:15.357Z,6.53
2018-01-28T12:28:42.859Z,6.70
2018-01-28T12:31:11.147Z,6.60
2018-01-28T12:33:38.627Z,5.30
2018-01-28T12:36:06.135Z,4.87
2018-01-28T12:38:33.638Z,7.80
2018-01-28T12:41:01.230Z,5.60
2018-01-28T12:43:28.732Z,6.47
2018-01-28T12:45:56.448Z,8.53
2018-01-28T12:48:23.946Z,7.87
2018-01-28T12:50:51.663Z,9.10
2018-01-28T12:53:19.387Z,4.97
2018-01-28T12:55:46.901Z,5.93
2018-01-28T12:58:14.399Z,6.00
2018-01-28T13:00:41.910Z,7.03
2018-01-28T13:03:09.566Z,6.50
2018-01-28T13:05:37.318Z,7.90
2018-01-28T13:08:04.832Z,6.67
2018-01-28T13:10:32.499Z,7.43
2018-01-28T13:13:00.038Z,6.93
2018-01-28T13:15:27.551Z,6.60
2018-01-28T13:17:55.174Z,6.50
2018-01-28T13:20:22.693Z,7.47
2018-01-28T13:22:51.976Z,5.33
2018-01-28T13:25:19.740Z,7.37
2018-01-28T13:27:47.995Z,5.43
2018-01-28T13:30:16.316Z,9.33
2018-01-28T13:32:43.823Z,7.03
2018-01-28T13:35:11.350Z,6.57
2018-01-28T13:37:39.623Z,6.50
2018-01-28T13:40:07.895Z,7.20
2018-01-28T13:42:35.611Z,8.40
2018-01-28T13:45:03.232Z,7.13
2018-01-28T13:47:30.701Z,5.53
2018-01-28T13:49:58.255Z,6.50
2018-01-28T13:52:25.907Z,5.90
2018-01-28T13:54:54.248Z,5.97
2018-01-28T13:57:21.894Z,8.27
2018-01-28T13:59:49.395Z,8.67
2018-01-28T14:02:17.835Z,6.90
2018-01-28T14:04:45.316Z,6.90
2018-01-28T14:07:12.826Z,7.90
2018-01-28T14:09:41.101Z,6.43
2018-01-28T14:12:08.604Z,6.87
2018-01-28T14:14:36.102Z,6.73
2018-01-28T14:17:03.623Z,6.37
2018-01-28T14:19:31.123Z,7.17
2018-01-28T14:21:58.930Z,7.50
2018-01-28T14:24:26.444Z,7.73
2018-01-28T14:26:53.944Z,7.73
2018-01-28T14:29:21.590Z,6.77
2018-01-28T14:31:49.157Z,9.57
2018-01-28T14:34:16.644Z,6.57
2018-01-28T14:36:45.192Z,8.20
2018-01-28T14:39:12.717Z,6.50
2018-01-28T14:41:40.223Z,7.07
2018-01-28T14:44:07.751Z,6.60
2018-01-28T14:46:35.247Z,7.37
2018-01-28T14:49:03.411Z,6.67
2018-01-28T14:51:30.918Z,8.07
2018-01-28T14:53:58.441Z,6.57
2018-01-28T14:56:25.952Z,6.20
2018-01-28T14:58:53.568Z,7.07
2018-01-28T15:01:21.315Z,5.83
2018-01-28T15:03:48.835Z,5.37
2018-01-28T15:06:16.491Z,7.80
2018-01-28T15:08:43.994Z,6.27
2018-01-28T15:11:11.735Z,5.10
2018-01-28T15:13:39.660Z,7.20
2018-01-28T15:16:07.256Z,4.80
2018-01-28T15:18:34.761Z,4.57
2018-01-28T15:21:02.271Z,5.10
2018-01-28T15:23:29.965Z,6.93
2018-01-28T15:25:57.476Z,4.70
2018-01-28T15:28:25.037Z,5.67
2018-01-28T15:30:53.311Z,5.90
2018-01-28T15:33:20.829Z,4.73
2018-01-28T15:35:49.106Z,3.80
2018-01-28T15:38:17.367Z,6.20
2018-01-28T15:40:44.876Z,5.13
2018-01-28T15:43:12.382Z,5.70
2018-01-28T15:45:40.127Z,5.37
2018-01-28T15:48:07.623Z,6.07
2018-01-28T15:50:35.142Z,6.30
2018-01-28T15:53:02.642Z,6.30
2018-01-28T15:55:30.235Z,6.30
2018-01-28T15:57:57.751Z,5.93
2018-01-28T16:00:25.303Z,5.23
2018-01-28T16:02:53.594Z,7.23
2018-01-28T16:05:21.092Z,6.27
2018-01-28T16:07:48.589Z,6.73
2018-01-28T16:10:16.883Z,7.00
2018-01-28T16:12:44.474Z,7.33
2018-01-28T16:15:11.954Z,7.55
2018-01-28T16:17:39.440Z,6.73
2018-01-28T16:20:06.982Z,6.00
2018-01-28T16:22:34.735Z,5.37
2018-01-28T16:25:02.446Z,8.40
2018-01-28T16:27:30.177Z,13.70
2018-01-28T16:29:58.452Z,5.93
2018-01-28T16:32:26.172Z,6.00
2018-01-28T16:34:54.076Z,5.60
2018-01-28T16:37:21.699Z,6.70
2018-01-28T16:39:49.208Z,7.00
2018-01-28T16:42:17.471Z,7.53
2018-01-28T16:44:45.050Z,5.43
2018-01-28T16:47:13.327Z,7.53
2018-01-28T16:49:41.051Z,5.70
2018-01-28T16:52:08.817Z,5.80
2018-01-28T16:54:36.799Z,5.50
2018-01-28T16:57:04.947Z,5.97
2018-01-28T16:59:32.447Z,6.27
2018-01-28T17:01:59.979Z,7.27
2018-01-28T17:04:27.631Z,8.03
2018-01-28T17:06:55.184Z,5.87
2018-01-28T17:09:22.791Z,7.37
2018-01-28T17:11:50.309Z,5.53
2018-01-28T17:14:17.816Z,8.60
2018-01-28T17:16:45.505Z,6.77
2018-01-28T17:19:13.234Z,6.93
2018-01-28T17:21:40.759Z,8.40
2018-01-28T17:24:08.261Z,8.30
2018-01-28T17:26:35.859Z,5.40
2018-01-28T17:29:03.349Z,5.50
2018-01-28T17:31:30.889Z,5.87
2018-01-28T17:33:58.394Z,6.00
2018-01-28T17:36:26.071Z,6.20
2018-01-28T17:38:53.567Z,5.77
2018-01-28T17:41:21.091Z,6.30
2018-01-28T17:43:48.626Z,6.07
2018-01-28T17:46:16.923Z,7.60
2018-01-28T17:48:44.430Z,5.40
2018-01-28T17:51:11.927Z,5.60
2018-01-28T17:53:39.495Z,5.80
2018-01-28T17:56:07.287Z,3.83
2018-01-28T17:58:34.786Z,5.67
2018-01-28T18:01:02.292Z,5.40
2018-01-28T18:03:29.784Z,4.70
2018-01-28T18:05:57.279Z,5.90
2018-01-28T18:08:25.183Z,4.20
2018-01-28T18:10:52.951Z,5.00
2018-01-28T18:13:20.459Z,5.23
2018-01-28T18:15:47.996Z,4.50
2018-01-28T18:18:15.594Z,4.30
2018-01-28T18:20:43.098Z,4.57
2018-01-28T18:23:10.844Z,4.60
2018-01-28T18:25:38.340Z,3.90
2018-01-28T18:28:05.839Z,4.07
2018-01-28T18:30:33.526Z,3.53
2018-01-28T18:33:01.946Z,4.60
2018-01-28T18:35:29.443Z,4.10
2018-01-28T18:37:56.951Z,3.50
2018-01-28T18:40:25.369Z,4.10
2018-01-28T18:42:52.924Z,3.50
2018-01-28T18:45:21.026Z,3.33
2018-01-28T18:47:48.527Z,3.43
2018-01-28T18:50:16.021Z,3.30
2018-01-28T18:52:43.697Z,3.67
2018-01-28T18:55:11.191Z,3.80
2018-01-28T18:57:38.887Z,3.60
2018-01-28T19:00:06.681Z,3.10
2018-01-28T19:02:34.445Z,2.77
2018-01-28T19:05:02.213Z,3.63
2018-01-28T19:07:29.698Z,2.27
2018-01-28T19:09:57.223Z,2.57
2018-01-28T19:12:24.723Z,2.50
2018-01-28T19:14:52.301Z,2.63
2018-01-28T19:17:19.813Z,2.73
2018-01-28T19:19:47.315Z,2.60
2018-01-28T19:22:15.024Z,2.30
2018-01-28T19:24:42.518Z,1.90
2018-01-28T19:27:10.866Z,2.10
2018-01-28T19:29:38.355Z,1.93
2018-01-28T19:32:05.875Z,2.07
2018-01-28T19:34:33.375Z,2.00
2018-01-28T19:37:01.925Z,1.87
2018-01-28T19:39:29.439Z,2.00
2018-01-28T19:41:56.950Z,1.80
2018-01-28T19:44:24.450Z,3.00
2018-01-28T19:46:51.995Z,1.77
2018-01-28T19:49:19.498Z,2.70
2018-01-28T19:51:47.036Z,1.40
2018-01-28T19:54:14.720Z,1.67
2018-01-28T19:56:42.478Z,1.73
2018-01-28T19:59:10.531Z,1.47
2018-01-28T20:01:38.037Z,1.67
2018-01-28T20:04:05.744Z,1.53
2018-01-28T20:06:33.254Z,1.80
2018-01-28T20:09:00.760Z,1.70
2018-01-28T20:11:28.276Z,2.00
2018-01-28T20:13:56.412Z,1.53
2018-01-28T20:16:23.927Z,1.50
2018-01-28T20:18:51.445Z,1.63
2018-01-28T20:21:18.977Z,1.60
2018-01-28T20:23:46.491Z,1.77
2018-01-28T20:26:15.032Z,1.30
2018-01-28T20:28:43.344Z,2.00
2018-01-28T20:31:10.855Z,0.90
2018-01-28T20:33:38.355Z,1.73
2018-01-28T20:36:06.018Z,1.50
2018-01-28T20:38:33.515Z,1.50
2018-01-28T20:41:01.028Z,1.27
2018-01-28T20:43:28.760Z,1.07
2018-01-28T20:45:56.306Z,1.13
2018-01-28T20:48:23.943Z,1.10
2018-01-28T20:50:51.457Z,1.83
2018-01-28T20:53:18.951Z,1.50
2018-01-28T20:55:46.471Z,1.40
2018-01-28T20:58:13.999Z,1.43
2018-01-28T21:00:41.512Z,1.40
2018-01-28T21:03:09.027Z,1.10
2018-01-28T21:05:36.526Z,1.43
2018-01-28T21:08:04.170Z,1.93
2018-01-28T21:10:31.708Z,2.00
2018-01-28T21:12:59.211Z,1.80
2018-01-28T21:15:26.922Z,1.67
2018-01-28T21:17:54.480Z,2.17
2018-01-28T21:20:21.982Z,1.67
2018-01-28T21:22:50.247Z,1.87
2018-01-28T21:25:17.750Z,1.60
2018-01-28T21:27:45.974Z,1.80
2018-01-28T21:30:13.463Z,1.90
2018-01-28T21:32:40.966Z,1.80
2018-01-28T21:35:08.457Z,1.73
2018-01-28T21:37:36.187Z,2.03
2018-01-28T21:40:03.688Z,1.90
2018-01-28T21:42:31.193Z,2.20
2018-01-28T21:44:58.831Z,1.90
2018-01-28T21:47:26.340Z,2.03
2018-01-28T21:49:53.905Z,1.70
2018-01-28T21:52:22.186Z,2.53
2018-01-28T21:54:50.514Z,2.37
2018-01-28T21:57:18.019Z,2.57
2018-01-28T21:59:45.531Z,2.73
2018-01-28T22:02:13.215Z,2.30
2018-01-28T22:04:40.722Z,2.40
2018-01-28T22:07:08.220Z,2.63
2018-01-28T22:09:36.742Z,2.23
2018-01-28T22:12:04.436Z,2.37
2018-01-28T22:14:31.939Z,2.43
2018-01-28T22:16:59.434Z,2.70
2018-01-28T22:19:26.940Z,3.07
2018-01-28T22:21:54.431Z,2.97
2018-01-28T22:24:22.367Z,2.47
2018-01-28T22:26:49.866Z,2.67
2018-01-28T22:29:18.267Z,3.00
2018-01-28T22:31:45.783Z,3.37
2018-01-28T22:34:13.273Z,2.60
2018-01-28T22:36:40.783Z,2.40
2018-01-28T22:39:08.430Z,2.90
2018-01-28T22:41:36.491Z,2.77
2018-01-28T22:44:04.231Z,3.03
2018-01-28T22:46:31.755Z,2.80
2018-01-28T22:48:59.441Z,2.37
2018-01-28T22:51:26.960Z,2.60
2018-01-28T22:53:54.470Z,2.40
2018-01-28T22:56:22.160Z,2.40
2018-01-28T22:58:49.655Z,2.70
2018-01-28T23:01:17.171Z,2.70
2018-01-28T23:03:44.666Z,2.77
2018-01-28T23:06:13.223Z,2.50
2018-01-28T23:08:40.728Z,2.20
2018-01-28T23:11:08.407Z,2.00
2018-01-28T23:13:36.191Z,1.80
2018-01-28T23:16:03.719Z,2.53
2018-01-28T23:18:31.242Z,2.30
2018-01-28T23:20:58.848Z,2.43
2018-01-28T23:23:26.347Z,3.10
2018-01-28T23:25:53.867Z,2.50
2018-01-28T23:28:21.367Z,3.13
2018-01-28T23:30:48.863Z,2.60
2018-01-28T23:33:17.751Z,3.90
2018-01-28T23:35:45.251Z,4.03
2018-01-28T23:38:12.911Z,3.80
2018-01-28T23:40:40.687Z,4.50
2018-01-28T23:43:08.212Z,4.03
2018-01-28T23:45:35.719Z,4.20
2018-01-28T23:48:03.229Z,5.20
2018-01-28T23:50:30.806Z,4.80
2018-01-28T23:52:59.131Z,5.90
2018-01-28T23:55:26.824Z,6.67
2018-01-28T23:57:54.319Z,5.43
